METAR AND TAF INFORMATION
METAR FOR SURV
ADDS - METARS form results

(1628 UTC 15 August 2018)
Data provider http://aviationweather.gov/adds/metars/
 
Forecast for: SURV (RIVERA , UY)
Text: TAF SURV 151145Z 1512/1612 16010KT 9999 FEW015 TX16/1518Z TN06/1610Z
Forecast period: 1200 UTC 15 August 2018 to 0300 UTC 16 August 2018
Forecast type: FROM: standard forecast or significant change
Winds: from the SSE (160 degrees) at 12 MPH (10 knots; 5.2 m/s)
Visibility: 6 or more miles (10+ km)
Clouds: few clouds at 1500 feet AGL
Weather: no significant weather forecast for this period
Text: BECMG 1603/1605 09010KT
Forecast period: 0300 to 1200 UTC 16 August 2018
Forecast type: BECOMING: Conditions expected to become as follows by 0500 UTC 16 August 2018
Winds: from the E (90 degrees) at 12 MPH (10 knots; 5.2 m/s)
Visibility: 6 or more miles (10+ km)
Clouds: few clouds at 1500 feet AGL
Weather: no significant weather forecast for this period

 AIRPORT MAP

 RUNWAY INFORMATION
Runway 05 Runway length 6004 ft Runway width 0 ft
Runway elevation 669 ft Runway displaced threshold 0 ft Runway heading 0
Runway 23 Runway length 6004 ft Runway width 0 ft
Runway elevation 719 ft Runway displaced threshold 0 ft Runway heading 0

 AIRPORT FREQUENCIES

 AIRPORT NEAR NAVIGATION AIDS
Type NDB Name Rivera Frequency 260 KHZ
Type NDB Name Rivera Frequency 305 KHZ



Powered by Virtual Airlines Manager [v2.6.2]